createdAt,value
2022-08-22T00:02:19.482Z,73.36
2022-08-22T00:05:10.082Z,73.30
2022-08-22T00:07:45.653Z,73.81
2022-08-22T00:10:26.269Z,74.17
2022-08-22T00:12:58.175Z,74.22
2022-08-22T00:15:44.809Z,74.61
2022-08-22T00:18:16.167Z,74.69
2022-08-22T00:20:45.814Z,74.42
2022-08-22T00:23:27.740Z,74.26
2022-08-22T00:26:16.455Z,74.04
2022-08-22T00:29:06.887Z,74.24
2022-08-22T00:31:45.751Z,73.56
2022-08-22T00:34:34.258Z,74.10
2022-08-22T00:37:15.521Z,74.28
2022-08-22T00:40:00.258Z,74.11
2022-08-22T00:43:08.388Z,73.88
2022-08-22T00:45:54.294Z,74.51
2022-08-22T00:48:39.061Z,74.54
2022-08-22T00:51:50.426Z,74.58
2022-08-22T00:54:54.019Z,74.59
2022-08-22T00:57:31.348Z,74.86
2022-08-22T01:00:14.728Z,75.06
2022-08-22T01:03:08.005Z,75.25
2022-08-22T01:06:06.787Z,75.30
2022-08-22T01:08:53.627Z,75.49
2022-08-22T01:11:40.302Z,75.43
2022-08-22T01:14:36.994Z,75.52
2022-08-22T01:17:19.876Z,75.81
2022-08-22T01:19:55.430Z,76.10
2022-08-22T01:22:40.792Z,75.83
2022-08-22T01:25:35.342Z,75.98
2022-08-22T01:28:29.637Z,76.14
2022-08-22T01:31:13.045Z,76.05
2022-08-22T01:34:15.480Z,75.55
2022-08-22T01:36:57.268Z,76.02
2022-08-22T01:39:46.281Z,75.77
2022-08-22T01:42:20.229Z,76.04
2022-08-22T01:44:58.818Z,76.43
2022-08-22T01:47:54.418Z,76.06
2022-08-22T01:50:38.626Z,76.19
2022-08-22T01:53:39.385Z,76.36
2022-08-22T01:56:22.144Z,75.90
2022-08-22T01:58:59.820Z,76.06
2022-08-22T02:01:49.727Z,76.13
2022-08-22T02:04:44.772Z,75.85
2022-08-22T02:07:35.151Z,75.99
2022-08-22T02:10:27.546Z,75.99
2022-08-22T02:13:18.989Z,75.89
2022-08-22T02:16:08.891Z,75.91
2022-08-22T02:19:05.002Z,76.14
2022-08-22T02:21:46.961Z,76.21
2022-08-22T02:24:25.473Z,75.97
2022-08-22T02:27:17.549Z,75.62
2022-08-22T02:29:50.639Z,75.68
2022-08-22T02:32:19.887Z,75.61
2022-08-22T02:35:01.247Z,75.48
2022-08-22T02:37:39.530Z,75.65
2022-08-22T02:40:27.722Z,75.72
2022-08-22T02:43:09.282Z,76.14
2022-08-22T02:46:03.467Z,76.42
2022-08-22T02:48:40.430Z,76.53
2022-08-22T02:51:21.376Z,76.85
2022-08-22T02:53:47.757Z,77.03
2022-08-22T02:56:33.314Z,77.17
2022-08-22T02:59:29.699Z,77.23
2022-08-22T03:01:56.744Z,77.34
2022-08-22T03:04:32.295Z,77.92
2022-08-22T03:07:08.030Z,78.02
2022-08-22T03:10:10.498Z,77.71
2022-08-22T03:13:02.628Z,77.97
2022-08-22T03:15:38.266Z,77.81
2022-08-22T03:18:24.635Z,77.82
2022-08-22T03:21:11.396Z,77.87
2022-08-22T03:23:37.834Z,77.64
2022-08-22T03:26:25.240Z,77.49
2022-08-22T03:28:59.298Z,76.87
2022-08-22T03:31:29.521Z,76.84
2022-08-22T03:34:14.607Z,76.86
2022-08-22T03:37:04.457Z,77.03
2022-08-22T03:39:51.660Z,76.87
2022-08-22T03:42:37.601Z,76.66
2022-08-22T03:45:22.356Z,77.25
2022-08-22T03:47:51.845Z,77.06
2022-08-22T03:50:46.947Z,76.98
2022-08-22T03:53:41.136Z,76.81
2022-08-22T03:56:32.261Z,77.13
2022-08-22T03:59:10.440Z,77.36
2022-08-22T04:01:47.172Z,77.28
2022-08-22T04:04:41.756Z,77.45
2022-08-22T04:07:32.194Z,77.30
2022-08-22T04:10:31.140Z,77.53
2022-08-22T04:13:19.351Z,77.66
2022-08-22T04:16:26.262Z,77.79
2022-08-22T04:19:05.690Z,77.90
2022-08-22T04:21:58.829Z,78.30
2022-08-22T04:24:44.255Z,78.30
2022-08-22T04:27:22.101Z,78.04
2022-08-22T04:29:52.274Z,78.00
2022-08-22T04:32:28.813Z,77.77
2022-08-22T04:35:07.329Z,77.96
2022-08-22T04:37:56.308Z,78.42
2022-08-22T04:40:39.112Z,78.04
2022-08-22T04:43:39.716Z,78.12
2022-08-22T04:46:15.374Z,77.80
2022-08-22T04:48:48.102Z,78.25
2022-08-22T04:51:33.973Z,78.03
2022-08-22T04:54:25.995Z,78.08
2022-08-22T04:57:15.901Z,78.22
2022-08-22T04:59:43.046Z,78.23
2022-08-22T05:02:19.822Z,78.51
2022-08-22T05:04:51.787Z,78.29
2022-08-22T05:07:22.921Z,79.10
2022-08-22T05:09:56.420Z,78.69
2022-08-22T05:12:31.779Z,79.03
2022-08-22T05:15:10.055Z,78.67
2022-08-22T05:17:38.812Z,78.79
2022-08-22T05:20:12.017Z,78.57
2022-08-22T05:22:45.040Z,78.63
2022-08-22T05:25:18.320Z,78.80
2022-08-22T05:27:51.223Z,78.73
2022-08-22T05:30:28.316Z,78.92
2022-08-22T05:33:19.349Z,79.01
2022-08-22T05:36:26.570Z,78.81
2022-08-22T05:39:10.091Z,78.67
2022-08-22T05:41:38.968Z,78.99
2022-08-22T05:44:16.395Z,79.24
2022-08-22T05:47:17.017Z,79.07
2022-08-22T05:49:56.914Z,78.97
2022-08-22T05:52:44.765Z,78.89
2022-08-22T05:55:17.558Z,78.93
2022-08-22T05:57:50.095Z,79.09
2022-08-22T06:00:23.277Z,78.67
2022-08-22T06:03:33.163Z,78.68
2022-08-22T06:06:07.041Z,79.00
2022-08-22T06:08:38.818Z,78.89
2022-08-22T06:11:34.311Z,79.05
2022-08-22T06:14:20.014Z,79.05
2022-08-22T06:17:03.791Z,79.01
2022-08-22T06:19:32.833Z,79.24
2022-08-22T06:22:00.707Z,79.61
2022-08-22T06:24:28.030Z,79.00
2022-08-22T06:27:04.028Z,79.00
2022-08-22T06:29:34.009Z,79.13
2022-08-22T06:32:07.927Z,79.25
2022-08-22T06:34:37.925Z,78.89
2022-08-22T06:37:09.760Z,78.83
2022-08-22T06:39:42.753Z,79.34
2022-08-22T06:42:16.566Z,79.48
2022-08-22T06:44:49.147Z,79.10
2022-08-22T06:47:23.484Z,78.97
2022-08-22T06:49:56.556Z,78.70
2022-08-22T06:52:27.151Z,78.60
2022-08-22T06:55:12.709Z,78.81
2022-08-22T06:57:52.258Z,78.93
2022-08-22T07:00:19.590Z,78.40
2022-08-22T07:02:53.124Z,79.37
2022-08-22T07:05:24.458Z,78.80
2022-08-22T07:07:52.251Z,78.82
2022-08-22T07:10:22.068Z,78.31
2022-08-22T07:12:52.320Z,78.24
2022-08-22T07:15:34.391Z,77.89
2022-08-22T07:18:05.819Z,78.08
2022-08-22T07:20:45.111Z,77.33
2022-08-22T07:23:31.739Z,77.75
2022-08-22T07:26:39.325Z,77.55
2022-08-22T07:29:17.892Z,77.39
2022-08-22T07:31:54.065Z,77.31
2022-08-22T07:34:46.670Z,77.20
2022-08-22T07:37:18.832Z,77.32
2022-08-22T07:40:03.571Z,77.58
2022-08-22T07:42:44.110Z,78.12
2022-08-22T07:45:33.039Z,77.17
2022-08-22T07:48:22.632Z,77.57
2022-08-22T07:51:09.217Z,77.62
2022-08-22T07:54:03.398Z,77.15
2022-08-22T07:56:36.631Z,76.58
2022-08-22T07:59:13.164Z,76.03
2022-08-22T08:01:45.670Z,76.27
2022-08-22T08:04:20.714Z,75.92
2022-08-22T08:06:52.784Z,75.22
2022-08-22T08:09:20.336Z,75.14
2022-08-22T08:11:50.541Z,73.60
2022-08-22T08:14:19.987Z,73.99
2022-08-22T08:17:06.906Z,72.44
2022-08-22T08:19:39.603Z,72.38
2022-08-22T08:22:06.610Z,72.46
2022-08-22T08:24:40.200Z,70.76
2022-08-22T08:27:35.234Z,70.42
2022-08-22T08:30:20.207Z,70.60
2022-08-22T08:32:57.603Z,69.56
2022-08-22T08:36:02.253Z,69.09
2022-08-22T08:38:36.528Z,68.57
2022-08-22T08:41:30.920Z,68.46
2022-08-22T08:44:09.679Z,68.28
2022-08-22T08:46:55.886Z,67.92
2022-08-22T08:49:39.621Z,67.81
2022-08-22T08:52:21.429Z,66.60
2022-08-22T08:55:19.638Z,67.39
2022-08-22T08:58:06.571Z,66.89
2022-08-22T09:00:45.981Z,65.96
2022-08-22T09:03:33.962Z,65.29
2022-08-22T09:06:21.995Z,65.74
2022-08-22T09:09:02.904Z,65.29
2022-08-22T09:11:57.965Z,64.72
2022-08-22T09:15:01.089Z,63.76
2022-08-22T09:17:45.362Z,64.79
2022-08-22T09:20:39.738Z,63.89
2022-08-22T09:23:11.019Z,63.46
2022-08-22T09:26:02.270Z,63.60
2022-08-22T09:28:53.517Z,64.14
2022-08-22T09:31:48.296Z,64.09
2022-08-22T09:34:34.303Z,63.26
2022-08-22T09:37:13.965Z,63.04
2022-08-22T09:39:58.732Z,61.93
2022-08-22T09:43:05.497Z,61.73
2022-08-22T09:45:45.485Z,60.87
2022-08-22T09:48:29.373Z,59.57
2022-08-22T09:51:08.303Z,59.04
2022-08-22T09:54:03.518Z,59.18
2022-08-22T09:56:55.211Z,58.17
2022-08-22T09:59:59.242Z,56.48
2022-08-22T10:02:43.542Z,56.39
2022-08-22T10:05:40.614Z,55.30
2022-08-22T10:08:33.554Z,56.30
2022-08-22T10:11:18.873Z,55.34
2022-08-22T10:14:00.581Z,54.89
2022-08-22T10:16:56.252Z,55.04
2022-08-22T10:19:48.783Z,56.12
2022-08-22T10:22:47.302Z,53.84
2022-08-22T10:26:04.148Z,54.00
2022-08-22T10:28:43.917Z,52.49
2022-08-22T10:31:58.641Z,51.71
2022-08-22T10:34:36.400Z,50.97
2022-08-22T10:37:11.611Z,50.10
2022-08-22T10:40:00.613Z,52.14
2022-08-22T10:42:59.175Z,52.33
2022-08-22T10:45:37.365Z,52.08
2022-08-22T10:48:08.889Z,50.18
2022-08-22T10:50:48.057Z,51.75
2022-08-22T10:53:30.176Z,51.77
2022-08-22T10:56:16.829Z,51.93
2022-08-22T10:58:56.121Z,51.44
2022-08-22T11:01:38.331Z,49.42
2022-08-22T11:04:30.485Z,49.93
2022-08-22T11:07:30.770Z,50.26
2022-08-22T11:10:05.303Z,49.54
2022-08-22T11:12:36.550Z,47.46
2022-08-22T11:15:28.413Z,47.24
2022-08-22T11:18:15.748Z,45.82
2022-08-22T11:21:04.842Z,46.79
2022-08-22T11:23:49.092Z,47.42
2022-08-22T11:26:30.026Z,45.87
2022-08-22T11:29:23.857Z,45.90
2022-08-22T11:32:06.285Z,45.52
2022-08-22T11:34:40.212Z,45.05
2022-08-22T11:37:18.961Z,46.05
2022-08-22T11:40:19.275Z,46.66
2022-08-22T11:42:49.224Z,46.64
2022-08-22T11:45:23.908Z,46.12
2022-08-22T11:48:02.540Z,46.66
2022-08-22T11:50:50.385Z,46.52
2022-08-22T11:53:32.675Z,46.34
2022-08-22T11:56:32.820Z,47.19
2022-08-22T11:59:14.103Z,46.31
2022-08-22T12:02:13.888Z,46.61
2022-08-22T12:04:46.258Z,45.53
2022-08-22T12:07:17.587Z,45.81
2022-08-22T12:10:15.135Z,46.54
2022-08-22T12:12:47.484Z,43.60
2022-08-22T12:15:21.525Z,43.97
2022-08-22T12:17:56.015Z,44.03
2022-08-22T12:20:57.414Z,44.27
2022-08-22T12:23:53.142Z,45.83
2022-08-22T12:26:48.354Z,44.84
2022-08-22T12:29:33.454Z,45.16
2022-08-22T12:32:38.296Z,45.38
2022-08-22T12:35:19.633Z,44.41
2022-08-22T12:38:27.930Z,42.27
2022-08-22T12:41:28.445Z,44.02
2022-08-22T12:44:07.807Z,42.20
2022-08-22T12:47:36.440Z,42.25
2022-08-22T12:50:17.872Z,40.85
2022-08-22T12:52:59.020Z,42.06
2022-08-22T12:55:47.483Z,43.18
2022-08-22T12:58:33.188Z,42.50
2022-08-22T13:01:05.023Z,41.11
2022-08-22T13:03:44.807Z,41.42
2022-08-22T13:06:36.231Z,42.50
2022-08-22T13:09:16.483Z,42.49
2022-08-22T13:11:45.557Z,41.91
2022-08-22T13:14:19.629Z,43.60
2022-08-22T13:17:24.559Z,42.64
2022-08-22T13:19:51.820Z,40.78
2022-08-22T13:22:23.625Z,39.91
2022-08-22T13:25:08.665Z,40.33
2022-08-22T13:27:50.585Z,38.99
2022-08-22T13:30:21.821Z,39.50
2022-08-22T13:32:52.687Z,39.29
2022-08-22T13:35:42.205Z,39.77
2022-08-22T13:38:25.643Z,39.15
2022-08-22T13:40:55.501Z,39.02
2022-08-22T13:43:27.030Z,39.97
2022-08-22T13:46:01.985Z,39.56
2022-08-22T13:48:56.707Z,40.14
2022-08-22T13:51:42.692Z,39.53
2022-08-22T13:54:12.421Z,38.03
2022-08-22T13:57:11.069Z,39.45
2022-08-22T14:00:07.012Z,38.09
2022-08-22T14:02:58.834Z,38.70
2022-08-22T14:05:28.222Z,38.04
2022-08-22T14:08:13.275Z,38.24
2022-08-22T14:10:47.850Z,38.24
2022-08-22T14:13:53.557Z,39.16
2022-08-22T14:16:24.602Z,39.29
2022-08-22T14:18:57.842Z,38.88
2022-08-22T14:21:40.176Z,38.24
2022-08-22T14:24:25.698Z,38.72
2022-08-22T14:27:08.109Z,37.76
2022-08-22T14:29:52.198Z,37.95
2022-08-22T14:32:19.283Z,38.08
2022-08-22T14:35:03.658Z,37.77
2022-08-22T14:37:35.082Z,38.52
2022-08-22T14:40:12.131Z,38.63
2022-08-22T14:42:46.314Z,37.84
2022-08-22T14:45:23.743Z,37.76
2022-08-22T14:48:29.931Z,37.85
2022-08-22T14:50:58.649Z,36.85
2022-08-22T14:53:31.312Z,38.48
2022-08-22T14:56:18.137Z,37.38
2022-08-22T14:58:57.569Z,36.50
2022-08-22T15:01:29.793Z,37.04
2022-08-22T15:04:10.192Z,36.92
2022-08-22T15:06:47.577Z,36.79
2022-08-22T15:09:48.929Z,36.39
2022-08-22T15:12:32.658Z,36.36
2022-08-22T15:15:06.616Z,35.81
2022-08-22T15:17:44.340Z,36.96
2022-08-22T15:20:22.859Z,36.18
2022-08-22T15:22:58.187Z,36.19
2022-08-22T15:25:31.180Z,35.38
2022-08-22T15:28:05.287Z,36.05
2022-08-22T15:30:37.706Z,35.80
2022-08-22T15:33:14.759Z,36.20
2022-08-22T15:35:43.916Z,35.36
2022-08-22T15:38:32.461Z,37.14
2022-08-22T15:41:36.011Z,36.23
2022-08-22T15:44:14.948Z,36.41
2022-08-22T15:47:02.776Z,35.67
2022-08-22T15:49:35.214Z,35.54
2022-08-22T15:52:01.782Z,35.51
2022-08-22T15:54:54.067Z,35.91
2022-08-22T15:57:40.329Z,35.93
2022-08-22T16:00:33.219Z,35.45
2022-08-22T16:03:09.172Z,35.28
2022-08-22T16:06:01.010Z,35.90
2022-08-22T16:08:54.140Z,35.84
2022-08-22T16:11:34.741Z,35.57
2022-08-22T16:14:23.019Z,34.96
2022-08-22T16:16:57.601Z,34.91
2022-08-22T16:19:26.169Z,35.10
2022-08-22T16:21:53.442Z,34.91
2022-08-22T16:24:21.755Z,35.05
2022-08-22T16:26:49.229Z,35.87
2022-08-22T16:29:41.083Z,35.66
2022-08-22T16:32:11.124Z,35.01
2022-08-22T16:34:37.539Z,35.12
2022-08-22T16:37:17.977Z,34.71
2022-08-22T16:39:46.837Z,34.44
2022-08-22T16:42:15.919Z,34.10
2022-08-22T16:44:48.529Z,33.95
2022-08-22T16:47:22.567Z,34.88
2022-08-22T16:49:48.949Z,34.35
2022-08-22T16:52:22.213Z,34.28
2022-08-22T16:54:51.621Z,34.33
2022-08-22T16:58:05.015Z,35.16
2022-08-22T17:00:58.033Z,34.91
2022-08-22T17:03:39.859Z,33.78
2022-08-22T17:06:26.473Z,33.55
2022-08-22T17:09:40.347Z,33.46
2022-08-22T17:12:27.883Z,32.88
2022-08-22T17:15:28.400Z,32.69
2022-08-22T17:18:11.617Z,33.00
2022-08-22T17:21:28.073Z,34.70
2022-08-22T17:24:00.596Z,34.46
2022-08-22T17:26:48.278Z,35.33
2022-08-22T17:29:48.862Z,36.15
2022-08-22T17:32:41.747Z,36.69
2022-08-22T17:35:08.265Z,38.27
2022-08-22T17:38:01.043Z,39.05
2022-08-22T17:40:36.405Z,39.78
2022-08-22T17:43:18.076Z,40.79
2022-08-22T17:46:03.213Z,41.70
2022-08-22T17:48:48.804Z,41.86
2022-08-22T17:51:25.303Z,43.26
2022-08-22T17:54:01.869Z,43.56
2022-08-22T17:56:41.138Z,43.76
2022-08-22T17:59:11.612Z,44.48
2022-08-22T18:02:09.584Z,44.16
2022-08-22T18:05:09.805Z,44.52
2022-08-22T18:07:44.992Z,45.67
2022-08-22T18:10:21.675Z,45.57
2022-08-22T18:13:12.516Z,45.59
2022-08-22T18:15:51.764Z,46.61
2022-08-22T18:18:28.224Z,46.53
2022-08-22T18:21:07.403Z,46.76
2022-08-22T18:23:49.681Z,47.57
2022-08-22T18:26:38.314Z,47.56
2022-08-22T18:29:16.256Z,48.03
2022-08-22T18:32:06.350Z,48.80
2022-08-22T18:34:54.090Z,48.57
2022-08-22T18:37:31.423Z,49.52
2022-08-22T18:40:11.233Z,49.67
2022-08-22T18:42:51.824Z,49.50
2022-08-22T18:45:43.808Z,50.87
2022-08-22T18:48:21.215Z,50.08
2022-08-22T18:50:49.134Z,50.99
2022-08-22T18:53:44.942Z,50.57
2022-08-22T18:56:21.104Z,50.84
2022-08-22T18:59:31.977Z,50.68
2022-08-22T19:02:26.979Z,51.04
2022-08-22T19:05:20.969Z,51.89
2022-08-22T19:08:15.499Z,52.49
2022-08-22T19:11:19.700Z,52.64
2022-08-22T19:13:57.085Z,52.70
2022-08-22T19:16:43.020Z,52.79
2022-08-22T19:19:17.435Z,53.32
2022-08-22T19:22:19.241Z,53.69
2022-08-22T19:25:09.054Z,54.39
2022-08-22T19:27:40.520Z,55.61
2022-08-22T19:30:36.050Z,55.40
2022-08-22T19:33:19.572Z,55.26
2022-08-22T19:35:54.033Z,55.82
2022-08-22T19:38:54.796Z,55.81
2022-08-22T19:41:44.392Z,56.44
2022-08-22T19:44:19.645Z,56.69
2022-08-22T19:47:05.553Z,57.15
2022-08-22T19:49:39.597Z,57.75
2022-08-22T19:52:21.060Z,57.13
2022-08-22T19:54:55.683Z,57.47
2022-08-22T19:57:55.223Z,57.47
2022-08-22T20:00:41.206Z,58.17
2022-08-22T20:03:31.107Z,58.07
2022-08-22T20:06:22.087Z,57.94
2022-08-22T20:09:12.820Z,58.43
2022-08-22T20:11:43.330Z,58.63
2022-08-22T20:14:22.503Z,58.18
2022-08-22T20:17:08.975Z,58.50
2022-08-22T20:19:41.619Z,58.40
2022-08-22T20:22:30.184Z,58.52
2022-08-22T20:25:02.923Z,58.62
2022-08-22T20:27:59.810Z,57.96
2022-08-22T20:30:37.642Z,57.91
2022-08-22T20:33:14.662Z,58.10
2022-08-22T20:35:47.584Z,58.69
2022-08-22T20:38:16.732Z,59.04
2022-08-22T20:41:11.767Z,58.26
2022-08-22T20:43:51.516Z,58.54
2022-08-22T20:46:46.668Z,58.54
2022-08-22T20:49:20.266Z,58.69
2022-08-22T20:51:52.785Z,58.25
2022-08-22T20:54:24.020Z,58.45
2022-08-22T20:57:00.787Z,58.33
2022-08-22T20:59:30.039Z,58.37
2022-08-22T21:02:07.361Z,58.58
2022-08-22T21:04:43.060Z,58.85
2022-08-22T21:07:10.351Z,59.23
2022-08-22T21:09:55.903Z,59.32
2022-08-22T21:12:23.130Z,59.74
2022-08-22T21:14:49.618Z,59.99
2022-08-22T21:17:34.234Z,60.28
2022-08-22T21:20:21.253Z,60.67
2022-08-22T21:22:48.067Z,60.60
2022-08-22T21:25:14.614Z,61.13
2022-08-22T21:27:46.621Z,60.90
2022-08-22T21:30:22.260Z,60.76
2022-08-22T21:32:53.752Z,60.89
2022-08-22T21:35:29.073Z,61.32
2022-08-22T21:37:56.663Z,61.91
2022-08-22T21:40:37.584Z,61.60
2022-08-22T21:43:28.462Z,61.90
2022-08-22T21:45:54.977Z,62.02
2022-08-22T21:48:37.063Z,62.12
2022-08-22T21:51:22.478Z,62.15
2022-08-22T21:53:49.431Z,61.74
2022-08-22T21:56:35.876Z,62.17
2022-08-22T21:59:49.312Z,61.90
2022-08-22T22:02:36.988Z,62.36
2022-08-22T22:05:13.447Z,62.74
2022-08-22T22:07:41.733Z,62.98
2022-08-22T22:10:11.333Z,63.06
2022-08-22T22:12:42.727Z,63.23
2022-08-22T22:15:13.105Z,63.14
2022-08-22T22:17:39.629Z,62.95
2022-08-22T22:20:07.131Z,63.34
2022-08-22T22:22:33.580Z,63.74
2022-08-22T22:25:04.694Z,64.10
2022-08-22T22:27:31.695Z,63.87
2022-08-22T22:29:58.374Z,64.22
2022-08-22T22:32:24.890Z,64.40
2022-08-22T22:34:51.399Z,64.43
2022-08-22T22:37:18.403Z,64.68
2022-08-22T22:39:45.090Z,64.95
2022-08-22T22:42:11.573Z,65.13
2022-08-22T22:44:38.115Z,65.09
2022-08-22T22:47:05.066Z,65.13
2022-08-22T22:49:32.497Z,65.29
2022-08-22T22:52:00.625Z,65.53
2022-08-22T22:54:27.560Z,65.60
2022-08-22T22:56:56.885Z,65.09
2022-08-22T22:59:25.374Z,65.24
2022-08-22T23:02:09.433Z,65.18
2022-08-22T23:04:38.923Z,65.73
2022-08-22T23:07:07.093Z,66.17
2022-08-22T23:09:37.989Z,66.19
2022-08-22T23:12:06.022Z,66.25
2022-08-22T23:14:33.161Z,66.35
2022-08-22T23:17:00.292Z,66.65
2022-08-22T23:19:27.855Z,66.81
2022-08-22T23:21:58.978Z,66.73
2022-08-22T23:24:29.347Z,67.08
2022-08-22T23:26:55.903Z,67.29
2022-08-22T23:29:22.750Z,67.38
2022-08-22T23:32:00.174Z,67.35
2022-08-22T23:34:33.377Z,67.21
2022-08-22T23:37:01.996Z,67.67
2022-08-22T23:39:33.242Z,67.75
2022-08-22T23:42:00.356Z,67.75
2022-08-22T23:44:31.219Z,68.02
2022-08-22T23:46:58.898Z,67.71
2022-08-22T23:49:26.519Z,67.55
2022-08-22T23:51:53.356Z,67.67
2022-08-22T23:54:20.825Z,68.04
2022-08-22T23:56:51.187Z,68.18
2022-08-22T23:59:20.921Z,68.30
